Main page
Satellite images 15-day forecastsClimateMarine weather Cyclones Lightning AirportsFAQ Newsletter About
Weather : Europe Africa North America South America Asia Australia-Oceania Others
Languages Contact

Baia Mare, Romania

latitude: 47-40N, longitude: 023-35E, elevation: 218 m


METAR: LRBM 201230Z 26004KT 160V320 9999 FEW020 27/11 Q1015
short-TAF: LRBM 201100Z 2012/2021 VRB04KT 9999 SCT030 TEMPO 2012/2016 VRB20KT 5000 TSRA SCT015 SCT030CB
long-TAF: out of date (761 hours)

Time: 15:39 (12:39 UTC)

Current weather observation

The report was made 8 minutes ago, at 12:30 UTC  
Wind 04 kt from the West, varying between South/Southeast and Northwest
Temperature 27°C
Humidity 37%
Pressure 1015 hPa
Visibility 10 km or more
Few clouds at a height of 2000 ft

Change units

Forecast

The report was made 1 hour and 7 minutes ago, at 11:31 UTC  
Forecast valid from 20 at 12 UTC to 20 at 21 UTC
Wind 04 kt from variable directions
Visibility 10 km or more
Scattered clouds at a height of 3000 ft
Temporary
from 20 at 12 UTC to 20 at 16 UTC
Wind 20 kt from variable directions
Visibility 5000 m
Scattered clouds at a height of 1500 ft
Scattered clouds at a height of 3000 ft , Cumulonimbus.
thunderstorm rain
The information on this site is subject to a disclaimer
Weather : Europe Africa North America South America Asia Australia-Oceania Others
Satellite images 15-day forecastsClimateMarine weather Cyclones Lightning AirportsFAQ Languages Contact Newsletter About